Time;durP1;ratioP1;P1;durP2;ratioP2;P2;SDS_P1;SDS_P2;PMS_P1;PMS_P2;Temp;Humidity;BMP_temperature;BMP_pressure;BME280_temperature;BME280_humidity;BME280_pressure;Samples;Min_cycle;Max_cycle;Signal;HPM_P1;HPM_P2
2022/12/21 00:00:13;;;;;;;4.97;2.90;;;;;;;;;;5018339;28;20025;-88
2022/12/21 00:02:39;;;;;;;4.80;2.85;;;;;;;;;;5019009;28;20030;-88
2022/12/21 00:05:06;;;;;;;4.10;2.70;;;;;;;;;;5017124;28;20457;-87
2022/12/21 00:07:32;;;;;;;5.47;2.50;;;;;;;;;;5017433;28;20402;-88
2022/12/21 00:09:57;;;;;;;4.70;2.70;;;;;;;;;;5017362;28;20042;-87
2022/12/21 00:12:23;;;;;;;4.25;3.00;;;;;;;;;;5017154;28;20022;-87
2022/12/21 00:14:49;;;;;;;5.10;2.90;;;;;;;;;;5017766;28;20478;-88
2022/12/21 00:17:15;;;;;;;6.22;3.08;;;;;;;;;;5017976;28;20144;-89
2022/12/21 00:19:40;;;;;;;4.97;2.67;;;;;;;;;;5017589;28;20034;-88
2022/12/21 00:22:06;;;;;;;6.35;3.00;;;;;;;;;;5018786;28;20030;-87
2022/12/21 00:24:32;;;;;;;5.35;2.97;;;;;;;;;;5018043;28;20033;-88
2022/12/21 00:26:58;;;;;;;6.15;3.22;;;;;;;;;;5016952;28;20034;-87
2022/12/21 00:29:23;;;;;;;5.07;3.15;;;;;;;;;;5018268;28;20037;-88
2022/12/21 00:31:50;;;;;;;22.88;3.80;;;;;;;;;;5017801;28;20038;-87
2022/12/21 00:34:19;;;;;;;10.35;5.05;;;;;;;;;;4997865;28;20026;-88
2022/12/21 00:36:45;;;;;;;12.18;7.68;;;;;;;;;;5014399;28;20059;-87
2022/12/21 00:39:12;;;;;;;14.43;8.13;;;;;;;;;;5013476;28;20030;-87
2022/12/21 00:41:38;;;;;;;14.52;8.50;;;;;;;;;;5024878;28;20045;-88
2022/12/21 00:44:03;;;;;;;13.40;8.55;;;;;;;;;;4999703;28;20041;-87
2022/12/21 00:46:31;;;;;;;16.35;8.75;;;;;;;;;;5013340;28;20199;-89
2022/12/21 00:48:58;;;;;;;11.55;6.85;;;;;;;;;;5013161;28;20034;-87
2022/12/21 00:51:25;;;;;;;13.20;6.60;;;;;;;;;;5013658;28;20502;-88
2022/12/21 00:53:53;;;;;;;9.98;5.93;;;;;;;;;;5014196;28;20022;-86
2022/12/21 00:56:18;;;;;;;10.95;6.22;;;;;;;;;;5022210;28;20029;-88
2022/12/21 00:58:45;;;;;;;8.70;4.22;;;;;;;;;;5019183;28;20037;-87
2022/12/21 01:01:16;;;;;;;6.95;4.45;;;;;;;;;;5016690;28;20584;-87
2022/12/21 01:03:42;;;;;;;7.28;4.80;;;;;;;;;;5000367;28;20471;-88
2022/12/21 01:06:14;;;;;;;8.05;4.82;;;;;;;;;;5015854;28;20037;-87
2022/12/21 01:08:39;;;;;;;6.63;4.53;;;;;;;;;;5015577;28;20033;-87
2022/12/21 01:11:05;;;;;;;6.10;3.90;;;;;;;;;;5017446;28;20080;-88
2022/12/21 01:13:32;;;;;;;7.45;3.60;;;;;;;;;;5016037;28;20072;-89
2022/12/21 01:15:58;;;;;;;7.32;3.72;;;;;;;;;;5016402;28;20103;-88
2022/12/21 01:18:24;;;;;;;6.32;4.00;;;;;;;;;;5017311;28;20633;-89
2022/12/21 01:20:52;;;;;;;6.53;3.47;;;;;;;;;;5016115;28;20030;-87
2022/12/21 01:23:18;;;;;;;5.70;3.80;;;;;;;;;;5015401;28;20030;-90
2022/12/21 01:25:45;;;;;;;5.65;3.55;;;;;;;;;;4999408;28;20034;-89
2022/12/21 01:28:11;;;;;;;6.00;3.90;;;;;;;;;;5016246;28;20033;-88
2022/12/21 01:30:38;;;;;;;5.25;3.05;;;;;;;;;;5015666;28;20161;-89
2022/12/21 01:33:15;;;;;;;4.82;2.80;;;;;;;;;;5013908;28;20054;-89
2022/12/21 01:35:42;;;;;;;5.05;2.60;;;;;;;;;;5012757;28;20033;-88
2022/12/21 01:38:08;;;;;;;5.22;2.70;;;;;;;;;;5012834;28;20034;-88
2022/12/21 01:40:34;;;;;;;4.63;2.08;;;;;;;;;;5012461;28;20057;-87
2022/12/21 01:43:00;;;;;;;3.85;2.30;;;;;;;;;;4996379;28;20040;-87
2022/12/21 01:45:31;;;;;;;4.18;2.55;;;;;;;;;;5006848;28;20069;-88
2022/12/21 01:48:02;;;;;;;4.35;2.20;;;;;;;;;;5015885;28;20492;-88
2022/12/21 01:50:50;;;;;;;3.45;2.00;;;;;;;;;;5017748;28;20077;-89
2022/12/21 01:53:23;;;;;;;3.30;1.92;;;;;;;;;;5016625;28;20022;-89
2022/12/21 01:55:53;;;;;;;3.85;2.22;;;;;;;;;;5013280;28;20097;-88
2022/12/21 01:58:19;;;;;;;3.47;2.33;;;;;;;;;;5015052;28;20036;-88
2022/12/21 02:00:45;;;;;;;4.63;2.40;;;;;;;;;;5013097;28;20030;-88
2022/12/21 02:03:16;;;;;;;4.78;2.55;;;;;;;;;;5012349;28;20097;-88
2022/12/21 02:06:01;;;;;;;4.00;2.40;;;;;;;;;;5012502;28;20030;-88
2022/12/21 02:08:27;;;;;;;3.70;2.50;;;;;;;;;;5011757;28;20036;-89
2022/12/21 02:10:54;;;;;;;2.97;2.00;;;;;;;;;;5011488;28;20109;-88
2022/12/21 02:13:21;;;;;;;3.63;2.28;;;;;;;;;;5027968;28;20038;-88
2022/12/21 02:16:10;;;;;;;3.08;2.10;;;;;;;;;;5008130;28;20034;-90
2022/12/21 02:18:48;;;;;;;4.20;2.00;;;;;;;;;;5019335;28;20064;-89
2022/12/21 02:21:26;;;;;;;4.80;2.20;;;;;;;;;;5017326;28;20060;-88
2022/12/21 02:24:38;;;;;;;3.05;2.00;;;;;;;;;;5017560;28;20394;-88
2022/12/21 02:27:13;;;;;;;3.30;1.90;;;;;;;;;;5016571;28;20121;-89
2022/12/21 02:29:38;;;;;;;3.67;1.92;;;;;;;;;;5015559;28;20030;-88
2022/12/21 02:32:31;;;;;;;3.38;1.85;;;;;;;;;;5017652;28;20036;-87
2022/12/21 02:35:21;;;;;;;3.17;1.85;;;;;;;;;;5017688;28;20040;-88
2022/12/21 02:37:50;;;;;;;3.22;1.90;;;;;;;;;;5019765;28;20029;-88
2022/12/21 02:40:42;;;;;;;3.08;2.00;;;;;;;;;;5001294;28;20034;-87
2022/12/21 02:46:34;;;;;;;3.72;2.10;;;;;;;;;;5016042;28;20030;-88
2022/12/21 02:49:20;;;;;;;3.78;1.95;;;;;;;;;;5025995;28;20075;-88
2022/12/21 02:51:52;;;;;;;3.13;2.00;;;;;;;;;;5003340;28;20029;-87
2022/12/21 02:54:18;;;;;;;3.72;2.00;;;;;;;;;;5019075;28;20041;-87
2022/12/21 02:56:45;;;;;;;3.55;1.88;;;;;;;;;;5018347;28;20026;-88
2022/12/21 02:59:15;;;;;;;3.00;1.80;;;;;;;;;;5018855;28;20097;-87
2022/12/21 03:02:16;;;;;;;4.50;1.70;;;;;;;;;;5066379;22;20037;-84
2022/12/21 03:04:50;;;;;;;4.03;1.88;;;;;;;;;;5011330;28;20033;-82
2022/12/21 03:07:37;;;;;;;3.00;1.88;;;;;;;;;;5027144;28;20052;-83
2022/12/21 03:10:25;;;;;;;3.08;1.90;;;;;;;;;;5010034;28;20033;-82
2022/12/21 03:13:16;;;;;;;2.78;1.80;;;;;;;;;;5045293;28;20029;-83
2022/12/21 03:16:13;;;;;;;3.45;2.00;;;;;;;;;;5027467;28;20038;-82
2022/12/21 03:18:58;;;;;;;3.03;2.08;;;;;;;;;;5010838;28;20068;-83
2022/12/21 03:21:37;;;;;;;3.40;1.90;;;;;;;;;;5027888;28;20029;-83
2022/12/21 03:24:34;;;;;;;2.70;2.05;;;;;;;;;;5010488;28;20060;-83
2022/12/21 03:27:10;;;;;;;3.50;2.08;;;;;;;;;;4989156;28;20041;-84
2022/12/21 03:30:00;;;;;;;2.47;1.92;;;;;;;;;;5011368;28;20097;-83
2022/12/21 03:32:52;;;;;;;3.72;2.20;;;;;;;;;;5026853;28;20512;-82
2022/12/21 03:35:26;;;;;;;3.60;2.08;;;;;;;;;;5044954;28;20469;-83
2022/12/21 03:37:55;;;;;;;3.88;2.45;;;;;;;;;;5044840;28;20030;-82
2022/12/21 03:40:24;;;;;;;4.00;2.33;;;;;;;;;;5045114;28;20022;-83
2022/12/21 03:43:01;;;;;;;6.63;3.38;;;;;;;;;;5027698;28;20041;-82
2022/12/21 03:45:42;;;;;;;6.50;4.15;;;;;;;;;;5009215;28;20083;-82
2022/12/21 03:48:23;;;;;;;7.32;4.47;;;;;;;;;;5010184;28;20037;-82
2022/12/21 03:50:51;;;;;;;9.32;5.15;;;;;;;;;;5026280;28;20040;-81
2022/12/21 03:53:23;;;;;;;8.35;4.95;;;;;;;;;;5026012;28;20079;-82
2022/12/21 03:55:51;;;;;;;9.23;5.18;;;;;;;;;;5043356;28;20033;-81
2022/12/21 03:58:17;;;;;;;7.95;4.38;;;;;;;;;;5026092;28;20052;-84
2022/12/21 04:00:49;;;;;;;9.50;5.18;;;;;;;;;;5044135;28;20061;-82
2022/12/21 04:03:33;;;;;;;7.45;4.60;;;;;;;;;;5025114;28;20128;-83
2022/12/21 04:06:10;;;;;;;6.20;3.95;;;;;;;;;;5010323;28;20108;-82
2022/12/21 04:08:37;;;;;;;6.07;3.20;;;;;;;;;;5026204;28;20492;-81
2022/12/21 04:11:02;;;;;;;6.93;3.58;;;;;;;;;;5026488;28;20022;-82
2022/12/21 04:13:28;;;;;;;8.50;4.25;;;;;;;;;;5026624;28;20037;-84
2022/12/21 04:16:05;;;;;;;6.78;3.85;;;;;;;;;;5043783;28;20031;-82
2022/12/21 04:21:17;;;;;;;6.30;4.00;;;;;;;;;;5044153;28;20536;-82
2022/12/21 04:29:12;;;;;;;4.88;2.80;;;;;;;;;;5042868;28;20087;-82
2022/12/21 04:31:40;;;;;;;3.70;2.40;;;;;;;;;;5042577;28;20029;-81
2022/12/21 04:34:05;;;;;;;4.18;2.50;;;;;;;;;;5043894;28;20466;-82
2022/12/21 04:39:15;;;;;;;4.07;2.45;;;;;;;;;;5025770;28;20026;-82
2022/12/21 04:41:41;;;;;;;3.47;2.20;;;;;;;;;;5045201;28;20497;-82
2022/12/21 04:44:06;;;;;;;6.13;2.60;;;;;;;;;;5027482;28;20025;-82
2022/12/21 04:46:32;;;;;;;4.55;2.63;;;;;;;;;;5043943;28;20045;-81
2022/12/21 04:48:57;;;;;;;3.45;2.20;;;;;;;;;;5044203;28;20029;-82
2022/12/21 04:51:24;;;;;;;4.60;2.45;;;;;;;;;;5044695;28;20057;-82
2022/12/21 04:53:51;;;;;;;4.22;2.28;;;;;;;;;;5025373;28;20048;-83
2022/12/21 04:56:17;;;;;;;5.70;2.53;;;;;;;;;;5009526;28;20025;-84
2022/12/21 04:58:44;;;;;;;3.80;2.50;;;;;;;;;;5026327;28;20063;-82
2022/12/21 05:01:16;;;;;;;14.80;5.38;;;;;;;;;;5009711;28;20122;-81
2022/12/21 05:03:42;;;;;;;14.43;4.93;;;;;;;;;;5024933;28;20076;-81
2022/12/21 05:06:09;;;;;;;11.05;4.45;;;;;;;;;;5025642;28;20060;-82
2022/12/21 05:08:36;;;;;;;9.68;3.83;;;;;;;;;;5044009;28;20052;-81
2022/12/21 05:11:15;;;;;;;8.27;3.88;;;;;;;;;;5044531;28;20585;-82
2022/12/21 05:13:41;;;;;;;8.95;4.78;;;;;;;;;;5043411;28;20048;-82
2022/12/21 05:16:09;;;;;;;6.55;3.70;;;;;;;;;;5009517;28;20060;-82
2022/12/21 05:18:35;;;;;;;4.30;2.70;;;;;;;;;;5044041;28;20549;-82
2022/12/21 05:21:01;;;;;;;5.28;3.35;;;;;;;;;;5043845;28;20095;-82
2022/12/21 05:23:26;;;;;;;3.58;2.15;;;;;;;;;;5024640;28;20034;-83
2022/12/21 05:25:52;;;;;;;4.65;2.90;;;;;;;;;;5025262;28;20041;-82
2022/12/21 05:28:17;;;;;;;4.60;2.70;;;;;;;;;;5044493;28;20037;-81
2022/12/21 05:30:42;;;;;;;4.07;2.67;;;;;;;;;;5026255;28;20018;-84
2022/12/21 05:33:08;;;;;;;3.70;2.53;;;;;;;;;;5026164;28;20025;-83
2022/12/21 05:35:40;;;;;;;4.50;2.90;;;;;;;;;;5008439;28;20033;-82
2022/12/21 05:38:07;;;;;;;7.00;3.58;;;;;;;;;;5025304;28;20088;-85
2022/12/21 05:40:33;;;;;;;4.18;2.55;;;;;;;;;;5042870;28;20034;-83
2022/12/21 05:43:02;;;;;;;4.10;2.45;;;;;;;;;;5024749;28;20056;-83
2022/12/21 05:45:28;;;;;;;3.65;2.25;;;;;;;;;;5025416;28;20061;-83
2022/12/21 05:47:54;;;;;;;2.80;2.00;;;;;;;;;;5025795;28;20025;-84
2022/12/21 05:50:20;;;;;;;4.53;2.53;;;;;;;;;;5024918;28;20424;-83
2022/12/21 05:52:46;;;;;;;4.45;2.72;;;;;;;;;;5043477;28;20480;-84
2022/12/21 05:55:12;;;;;;;4.07;2.65;;;;;;;;;;5024449;28;20029;-83
2022/12/21 05:57:37;;;;;;;4.00;2.65;;;;;;;;;;5009506;28;20087;-83
2022/12/21 06:00:04;;;;;;;4.20;2.70;;;;;;;;;;5007879;28;20051;-84
2022/12/21 06:02:38;;;;;;;5.32;3.50;;;;;;;;;;5025490;28;20041;-82
2022/12/21 06:05:03;;;;;;;6.13;4.03;;;;;;;;;;5041059;28;20474;-82
2022/12/21 06:07:29;;;;;;;7.53;4.60;;;;;;;;;;5042924;28;20111;-82
2022/12/21 06:09:55;;;;;;;6.22;3.33;;;;;;;;;;5023352;28;20107;-84
2022/12/21 06:12:20;;;;;;;4.30;2.90;;;;;;;;;;5024946;28;20022;-83
2022/12/21 06:14:46;;;;;;;5.25;2.78;;;;;;;;;;5042345;28;20029;-83
2022/12/21 06:17:11;;;;;;;4.50;2.67;;;;;;;;;;5023237;28;20390;-84
2022/12/21 06:19:37;;;;;;;3.85;2.67;;;;;;;;;;5008179;28;20067;-81
2022/12/21 06:22:02;;;;;;;5.90;2.80;;;;;;;;;;5043127;28;20433;-82
2022/12/21 06:24:30;;;;;;;4.68;2.63;;;;;;;;;;5024538;28;20120;-83
2022/12/21 06:26:56;;;;;;;5.05;2.40;;;;;;;;;;5043010;28;20089;-83
2022/12/21 06:29:21;;;;;;;4.28;2.40;;;;;;;;;;5042647;28;20049;-84
2022/12/21 06:31:47;;;;;;;4.05;2.40;;;;;;;;;;5042252;28;20025;-83
2022/12/21 06:34:13;;;;;;;4.80;2.80;;;;;;;;;;5043565;28;20030;-84
2022/12/21 06:36:39;;;;;;;5.43;3.05;;;;;;;;;;5025225;28;20037;-82
2022/12/21 06:39:04;;;;;;;3.83;2.63;;;;;;;;;;5043427;28;20029;-82
2022/12/21 06:41:30;;;;;;;5.57;3.08;;;;;;;;;;5042191;28;20034;-84
2022/12/21 06:43:55;;;;;;;5.47;3.28;;;;;;;;;;5008868;28;20120;-83
2022/12/21 06:46:21;;;;;;;5.45;3.33;;;;;;;;;;5024901;28;20068;-83
2022/12/21 06:48:47;;;;;;;7.70;4.53;;;;;;;;;;5024419;28;20029;-83
2022/12/21 06:51:17;;;;;;;11.38;5.60;;;;;;;;;;5009538;28;20037;-84
2022/12/21 06:53:45;;;;;;;9.05;5.50;;;;;;;;;;5007815;28;20032;-83
2022/12/21 06:56:19;;;;;;;10.38;4.55;;;;;;;;;;5043378;28;20031;-84
2022/12/21 06:58:46;;;;;;;8.27;4.57;;;;;;;;;;5024946;28;20060;-83
2022/12/21 07:01:14;;;;;;;6.45;3.90;;;;;;;;;;5042470;28;20029;-84
2022/12/21 07:03:41;;;;;;;5.78;3.17;;;;;;;;;;5008835;28;20029;-82
2022/12/21 07:06:07;;;;;;;11.85;5.70;;;;;;;;;;5008157;28;20040;-83
2022/12/21 07:08:33;;;;;;;8.60;3.90;;;;;;;;;;5024095;28;20396;-83
2022/12/21 07:11:01;;;;;;;5.97;3.33;;;;;;;;;;5023839;28;20543;-84
2022/12/21 07:13:27;;;;;;;4.60;2.60;;;;;;;;;;5008634;28;20033;-83
2022/12/21 07:15:54;;;;;;;4.72;2.75;;;;;;;;;;5042051;28;20018;-83
2022/12/21 07:18:19;;;;;;;5.15;3.05;;;;;;;;;;5008170;28;20120;-82
2022/12/21 07:20:45;;;;;;;6.85;3.97;;;;;;;;;;5025552;28;20547;-82
2022/12/21 07:23:11;;;;;;;8.05;3.75;;;;;;;;;;5027202;28;20074;-84
2022/12/21 07:25:36;;;;;;;5.95;3.50;;;;;;;;;;5044039;28;20029;-84
2022/12/21 07:28:02;;;;;;;7.85;2.75;;;;;;;;;;5011643;28;20373;-83
2022/12/21 07:30:27;;;;;;;4.68;2.50;;;;;;;;;;5027908;28;20032;-83
2022/12/21 07:32:53;;;;;;;5.07;2.70;;;;;;;;;;5027316;28;20040;-84
2022/12/21 07:35:23;;;;;;;4.65;2.40;;;;;;;;;;5024049;28;20041;-84
2022/12/21 07:37:50;;;;;;;6.35;2.90;;;;;;;;;;5043008;28;20033;-84
2022/12/21 07:40:16;;;;;;;4.00;2.75;;;;;;;;;;5022475;28;20081;-83
2022/12/21 07:42:46;;;;;;;4.35;2.20;;;;;;;;;;5021968;28;20172;-82
2022/12/21 07:45:28;;;;;;;4.32;2.40;;;;;;;;;;5010179;28;20025;-84
2022/12/21 07:47:57;;;;;;;4.50;2.35;;;;;;;;;;5023330;28;20044;-83
2022/12/21 07:50:22;;;;;;;4.32;2.40;;;;;;;;;;5042336;28;20032;-84
2022/12/21 07:52:48;;;;;;;3.95;2.40;;;;;;;;;;5025225;28;20028;-83
2022/12/21 07:55:13;;;;;;;4.03;2.60;;;;;;;;;;5025719;28;20033;-83
2022/12/21 07:57:39;;;;;;;4.32;2.55;;;;;;;;;;5025901;28;20128;-85
2022/12/21 08:00:05;;;;;;;4.90;2.60;;;;;;;;;;5025990;28;20033;-83
2022/12/21 08:02:37;;;;;;;5.05;2.72;;;;;;;;;;5043764;28;20033;-83
2022/12/21 08:05:03;;;;;;;5.22;3.15;;;;;;;;;;5027490;28;20038;-84
2022/12/21 08:07:29;;;;;;;4.22;2.90;;;;;;;;;;5044947;28;20030;-83
2022/12/21 08:09:54;;;;;;;4.20;2.45;;;;;;;;;;5027498;28;20040;-85
2022/12/21 08:12:20;;;;;;;4.95;2.35;;;;;;;;;;5026698;28;20040;-82
2022/12/21 08:14:45;;;;;;;4.30;3.17;;;;;;;;;;5042796;28;20100;-82
2022/12/21 08:17:10;;;;;;;5.75;3.10;;;;;;;;;;5046165;28;20034;-85
2022/12/21 08:19:36;;;;;;;6.55;3.58;;;;;;;;;;5028211;28;20112;-84
2022/12/21 08:22:02;;;;;;;4.93;2.47;;;;;;;;;;5025267;28;20037;-84
2022/12/21 08:24:28;;;;;;;7.65;2.83;;;;;;;;;;5025861;28;20060;-84
2022/12/21 08:26:54;;;;;;;8.85;3.17;;;;;;;;;;5043459;28;20048;-83
2022/12/21 08:29:20;;;;;;;7.18;3.13;;;;;;;;;;5026897;28;20037;-85
2022/12/21 08:31:45;;;;;;;7.00;3.60;;;;;;;;;;5024737;28;20049;-83
2022/12/21 08:34:11;;;;;;;6.25;3.55;;;;;;;;;;5026112;28;20095;-83
2022/12/21 08:36:37;;;;;;;6.25;3.28;;;;;;;;;;5025500;28;20032;-84
2022/12/21 08:39:03;;;;;;;5.45;3.25;;;;;;;;;;5044667;28;20036;-84
2022/12/21 08:41:29;;;;;;;5.88;3.33;;;;;;;;;;5025823;28;20037;-83
2022/12/21 08:43:55;;;;;;;5.07;3.10;;;;;;;;;;5026020;28;20044;-83
2022/12/21 08:46:21;;;;;;;5.90;3.25;;;;;;;;;;5026608;28;20094;-84
2022/12/21 08:48:51;;;;;;;5.47;3.25;;;;;;;;;;5026173;28;20053;-84
2022/12/21 08:51:16;;;;;;;5.38;3.10;;;;;;;;;;5024890;28;20037;-84
2022/12/21 08:53:42;;;;;;;6.20;3.20;;;;;;;;;;5026238;28;20067;-82
2022/12/21 08:56:07;;;;;;;6.00;3.50;;;;;;;;;;5024847;28;20045;-83
2022/12/21 08:58:34;;;;;;;5.53;3.53;;;;;;;;;;5026880;28;20050;-84
2022/12/21 09:01:00;;;;;;;7.22;3.30;;;;;;;;;;5026546;28;20099;-84
2022/12/21 09:03:26;;;;;;;5.55;3.08;;;;;;;;;;5009375;28;20044;-83
2022/12/21 09:05:57;;;;;;;5.20;2.92;;;;;;;;;;5043783;28;20059;-84
2022/12/21 09:08:24;;;;;;;8.07;3.10;;;;;;;;;;5026020;28;20064;-84
2022/12/21 09:10:58;;;;;;;6.55;3.60;;;;;;;;;;5043265;28;20045;-84
2022/12/21 09:13:23;;;;;;;8.45;4.40;;;;;;;;;;5024913;28;20033;-84
2022/12/21 09:15:49;;;;;;;4.28;2.75;;;;;;;;;;5024133;28;20037;-82
2022/12/21 09:18:14;;;;;;;5.13;2.90;;;;;;;;;;5024069;28;20029;-82
2022/12/21 09:20:41;;;;;;;4.82;2.70;;;;;;;;;;5029812;28;20036;-81
2022/12/21 09:23:06;;;;;;;3.78;2.55;;;;;;;;;;5029858;28;20025;-82
2022/12/21 09:25:32;;;;;;;3.85;2.55;;;;;;;;;;5045905;28;20427;-83
2022/12/21 09:28:01;;;;;;;3.67;2.63;;;;;;;;;;5028259;28;20033;-83
2022/12/21 09:30:27;;;;;;;5.35;2.80;;;;;;;;;;5029627;28;20042;-81
2022/12/21 09:32:53;;;;;;;4.88;2.88;;;;;;;;;;5027995;28;20359;-82
2022/12/21 09:35:19;;;;;;;4.40;2.58;;;;;;;;;;5026511;28;20075;-82
2022/12/21 09:37:45;;;;;;;5.55;3.20;;;;;;;;;;5011302;28;20037;-82
2022/12/21 09:40:15;;;;;;;5.00;3.00;;;;;;;;;;5024480;28;20041;-81
2022/12/21 09:43:16;;;;;;;6.70;2.92;;;;;;;;;;5020796;28;20156;-81
2022/12/21 09:46:04;;;;;;;4.25;2.63;;;;;;;;;;5017056;28;20076;-82
2022/12/21 09:48:34;;;;;;;10.25;5.55;;;;;;;;;;5046721;28;20032;-82
2022/12/21 09:51:05;;;;;;;13.50;6.07;;;;;;;;;;5028849;28;20089;-82
2022/12/21 09:53:39;;;;;;;9.68;5.13;;;;;;;;;;5029622;28;20505;-82
2022/12/21 09:56:07;;;;;;;11.57;5.78;;;;;;;;;;5045681;28;20043;-83
2022/12/21 09:58:40;;;;;;;10.63;5.05;;;;;;;;;;5045552;28;20021;-82
2022/12/21 10:01:51;;;;;;;9.40;3.35;;;;;;;;;;5045713;28;20116;-82
2022/12/21 10:04:16;;;;;;;5.70;3.15;;;;;;;;;;5028133;28;20039;-82
2022/12/21 10:07:03;;;;;;;7.70;4.07;;;;;;;;;;5012115;28;20269;-82
2022/12/21 10:09:38;;;;;;;10.75;4.32;;;;;;;;;;5029109;28;20056;-82
2022/12/21 10:12:22;;;;;;;5.55;3.13;;;;;;;;;;5028472;28;20033;-82
2022/12/21 10:15:15;;;;;;;7.32;2.58;;;;;;;;;;5045767;28;20040;-81
2022/12/21 10:18:07;;;;;;;4.40;2.47;;;;;;;;;;5028880;28;20033;-82
2022/12/21 10:20:59;;;;;;;5.93;2.90;;;;;;;;;;5046601;28;20497;-82
2022/12/21 10:23:35;;;;;;;6.20;2.70;;;;;;;;;;5027906;28;20057;-83
2022/12/21 10:26:04;;;;;;;6.57;2.60;;;;;;;;;;5045112;28;20112;-81
2022/12/21 10:28:29;;;;;;;4.63;2.58;;;;;;;;;;5028153;28;20103;-82
2022/12/21 10:31:07;;;;;;;5.05;2.67;;;;;;;;;;5011641;28;20037;-83
2022/12/21 10:33:41;;;;;;;4.95;2.42;;;;;;;;;;5011773;28;20034;-81
2022/12/21 10:36:15;;;;;;;5.35;2.30;;;;;;;;;;5045051;28;20084;-82
2022/12/21 10:38:40;;;;;;;5.32;2.10;;;;;;;;;;5046023;28;20095;-83
2022/12/21 10:41:31;;;;;;;3.78;2.17;;;;;;;;;;5028569;28;20029;-83
2022/12/21 10:43:59;;;;;;;3.60;1.83;;;;;;;;;;5011538;28;20056;-80
2022/12/21 10:46:30;;;;;;;6.07;1.90;;;;;;;;;;5045863;28;20061;-83
2022/12/21 10:49:01;;;;;;;4.13;1.77;;;;;;;;;;5011014;28;20037;-81
2022/12/21 10:51:35;;;;;;;2.72;1.67;;;;;;;;;;5011739;28;20085;-82
2022/12/21 10:54:10;;;;;;;3.25;1.80;;;;;;;;;;5024766;28;20072;-82
2022/12/21 10:56:43;;;;;;;2.75;1.58;;;;;;;;;;5012649;28;20045;-81
2022/12/21 10:59:22;;;;;;;5.28;1.75;;;;;;;;;;5046201;28;20060;-82
2022/12/21 11:01:49;;;;;;;2.83;1.83;;;;;;;;;;5029189;28;20033;-83
2022/12/21 11:04:14;;;;;;;3.63;1.75;;;;;;;;;;5044652;28;20361;-83
2022/12/21 11:06:54;;;;;;;3.13;1.90;;;;;;;;;;5030157;28;20057;-82
2022/12/21 11:09:37;;;;;;;2.92;2.00;;;;;;;;;;5028224;28;20033;-82
2022/12/21 11:12:32;;;;;;;5.82;2.50;;;;;;;;;;5046314;28;20048;-83
2022/12/21 11:15:10;;;;;;;4.53;2.00;;;;;;;;;;5020903;28;20051;-81
2022/12/21 11:17:36;;;;;;;3.03;1.70;;;;;;;;;;5045560;28;20042;-83
2022/12/21 11:20:14;;;;;;;4.53;1.83;;;;;;;;;;5029044;28;20043;-83
2022/12/21 11:22:43;;;;;;;6.93;2.28;;;;;;;;;;5013399;28;20037;-82
2022/12/21 11:25:15;;;;;;;5.97;3.30;;;;;;;;;;5029038;28;20026;-83
2022/12/21 11:27:44;;;;;;;8.98;5.00;;;;;;;;;;5048687;28;20033;-84
2022/12/21 11:30:33;;;;;;;5.25;3.00;;;;;;;;;;5014300;28;20049;-83
2022/12/21 11:32:59;;;;;;;4.88;2.03;;;;;;;;;;5029984;28;20029;-83
2022/12/21 11:35:31;;;;;;;5.93;1.90;;;;;;;;;;5047995;28;20018;-83
2022/12/21 11:38:13;;;;;;;5.90;2.28;;;;;;;;;;5046941;28;20033;-83
2022/12/21 11:40:53;;;;;;;4.00;2.03;;;;;;;;;;5027504;28;20109;-84
2022/12/21 11:43:19;;;;;;;5.53;2.33;;;;;;;;;;5027345;28;20057;-83
2022/12/21 11:45:59;;;;;;;5.63;2.17;;;;;;;;;;5046368;28;20033;-83
2022/12/21 11:48:40;;;;;;;3.47;2.10;;;;;;;;;;5028230;28;20033;-83
2022/12/21 11:51:29;;;;;;;6.10;2.30;;;;;;;;;;5046055;28;20033;-84
2022/12/21 11:54:14;;;;;;;4.30;2.30;;;;;;;;;;5029958;28;20067;-81
2022/12/21 11:56:46;;;;;;;3.03;2.00;;;;;;;;;;5028055;28;20057;-83
2022/12/21 11:59:28;;;;;;;5.50;2.40;;;;;;;;;;5012843;28;20398;-82
2022/12/21 12:02:29;;;;;;;3.95;2.80;;;;;;;;;;5029610;28;20128;-82
2022/12/21 12:05:03;;;;;;;7.68;4.03;;;;;;;;;;5028023;28;20037;-81
2022/12/21 12:07:28;;;;;;;7.25;4.28;;;;;;;;;;5046190;28;20025;-82
2022/12/21 12:10:26;;;;;;;9.00;5.40;;;;;;;;;;5027181;28;20385;-81
2022/12/21 12:12:57;;;;;;;13.20;6.15;;;;;;;;;;5014344;28;20033;-81
2022/12/21 12:15:49;;;;;;;7.78;4.82;;;;;;;;;;5029491;28;20037;-84
2022/12/21 12:18:48;;;;;;;10.05;4.65;;;;;;;;;;5012517;28;20041;-82
2022/12/21 12:21:16;;;;;;;7.57;4.70;;;;;;;;;;5046995;28;20030;-82
2022/12/21 12:24:10;;;;;;;11.50;5.35;;;;;;;;;;5028846;28;20032;-81
2022/12/21 12:27:04;;;;;;;11.45;6.35;;;;;;;;;;5025328;28;20033;-81
2022/12/21 12:30:09;;;;;;;8.88;5.18;;;;;;;;;;5010156;28;20033;-80
2022/12/21 12:33:06;;;;;;;14.48;7.80;;;;;;;;;;5026067;28;20052;-82
2022/12/21 12:35:48;;;;;;;13.75;7.20;;;;;;;;;;5041996;28;20033;-81
2022/12/21 12:38:31;;;;;;;9.15;5.18;;;;;;;;;;5008908;28;20171;-81
2022/12/21 12:41:21;;;;;;;10.50;5.53;;;;;;;;;;5043162;28;20029;-81
2022/12/21 12:43:59;;;;;;;16.45;8.27;;;;;;;;;;5043773;28;20032;-80
2022/12/21 12:46:43;;;;;;;18.73;8.52;;;;;;;;;;5025403;28;20029;-80
2022/12/21 12:49:42;;;;;;;24.35;12.25;;;;;;;;;;5026332;28;20497;-81
2022/12/21 12:52:29;;;;;;;25.83;12.07;;;;;;;;;;5027813;28;20029;-81
2022/12/21 12:55:04;;;;;;;14.35;6.70;;;;;;;;;;5044396;28;20044;-81
2022/12/21 12:57:37;;;;;;;18.88;7.78;;;;;;;;;;5027502;28;20112;-81
2022/12/21 13:00:09;;;;;;;19.60;8.18;;;;;;;;;;5026525;28;20036;-81
2022/12/21 13:02:52;;;;;;;14.55;7.15;;;;;;;;;;5026518;28;20116;-80
2022/12/21 13:05:30;;;;;;;7.25;4.13;;;;;;;;;;5025197;28;20033;-80
2022/12/21 13:08:35;;;;;;;27.67;7.57;;;;;;;;;;5045255;28;20033;-81
2022/12/21 13:11:22;;;;;;;13.75;4.65;;;;;;;;;;5043642;28;20033;-81
2022/12/21 13:13:59;;;;;;;9.88;4.10;;;;;;;;;;5009293;28;20612;-81
2022/12/21 13:16:35;;;;;;;25.27;7.47;;;;;;;;;;5044958;28;20041;-82
2022/12/21 13:19:05;;;;;;;9.55;3.97;;;;;;;;;;5008935;28;20041;-82
2022/12/21 13:21:34;;;;;;;9.00;4.57;;;;;;;;;;5046242;28;20092;-84
2022/12/21 13:24:10;;;;;;;7.32;3.60;;;;;;;;;;5025897;28;20021;-81
2022/12/21 13:26:36;;;;;;;8.50;3.67;;;;;;;;;;5044137;28;20037;-82
2022/12/21 13:29:18;;;;;;;4.35;3.00;;;;;;;;;;5025033;28;20036;-82
2022/12/21 13:32:04;;;;;;;4.03;2.75;;;;;;;;;;5025691;28;20034;-83
2022/12/21 13:34:45;;;;;;;4.78;2.80;;;;;;;;;;5044183;28;20524;-83
2022/12/21 13:37:18;;;;;;;4.82;3.00;;;;;;;;;;5043468;28;20033;-83
2022/12/21 13:39:50;;;;;;;6.13;3.40;;;;;;;;;;5044575;28;20071;-82
2022/12/21 13:42:37;;;;;;;6.03;3.35;;;;;;;;;;5041266;28;20037;-84
2022/12/21 13:45:14;;;;;;;4.80;2.75;;;;;;;;;;5021889;28;20033;-82
2022/12/21 13:47:41;;;;;;;4.18;2.70;;;;;;;;;;5023093;28;20029;-82
2022/12/21 13:50:12;;;;;;;11.52;4.18;;;;;;;;;;5039212;28;20021;-83
2022/12/21 13:53:05;;;;;;;5.93;3.47;;;;;;;;;;5005422;28;20116;-83
2022/12/21 13:55:33;;;;;;;5.95;3.00;;;;;;;;;;5022008;28;20057;-83
2022/12/21 13:58:08;;;;;;;14.52;4.97;;;;;;;;;;5040525;28;20037;-83
2022/12/21 14:00:39;;;;;;;11.07;3.60;;;;;;;;;;5023977;28;20029;-83
2022/12/21 14:03:14;;;;;;;5.93;2.85;;;;;;;;;;5023281;28;20090;-83
2022/12/21 14:06:21;;;;;;;5.88;3.25;;;;;;;;;;5042348;28;20116;-84
2022/12/21 14:09:21;;;;;;;5.63;3.13;;;;;;;;;;5004882;28;20475;-83
2022/12/21 14:12:15;;;;;;;6.22;3.17;;;;;;;;;;5036390;28;20033;-84
2022/12/21 14:14:43;;;;;;;8.45;3.80;;;;;;;;;;5019879;28;20025;-82
2022/12/21 14:17:30;;;;;;;9.43;4.40;;;;;;;;;;5037713;28;20041;-84
2022/12/21 14:19:57;;;;;;;5.85;3.30;;;;;;;;;;5019821;28;20033;-83
2022/12/21 14:22:42;;;;;;;5.18;3.30;;;;;;;;;;5038626;28;20026;-83
2022/12/21 14:25:40;;;;;;;9.55;4.75;;;;;;;;;;5036943;28;20037;-82
2022/12/21 14:28:31;;;;;;;8.93;5.05;;;;;;;;;;5038812;28;20049;-81
2022/12/21 14:31:04;;;;;;;8.27;4.88;;;;;;;;;;5006119;28;20040;-84
2022/12/21 14:33:43;;;;;;;9.07;5.18;;;;;;;;;;5009548;28;20048;-83
2022/12/21 14:36:15;;;;;;;8.23;3.85;;;;;;;;;;5025517;28;20048;-82
2022/12/21 14:38:42;;;;;;;8.07;4.13;;;;;;;;;;5027312;28;20029;-80
2022/12/21 14:41:07;;;;;;;7.10;3.60;;;;;;;;;;5026790;28;20020;-82
2022/12/21 14:44:11;;;;;;;5.30;3.15;;;;;;;;;;5010058;28;20021;-82
2022/12/21 14:46:56;;;;;;;6.07;3.08;;;;;;;;;;5044181;28;20036;-80
2022/12/21 14:49:31;;;;;;;8.50;4.43;;;;;;;;;;5026464;28;20037;-82
2022/12/21 14:51:58;;;;;;;5.88;3.38;;;;;;;;;;5026726;28;20100;-81
2022/12/21 14:54:31;;;;;;;6.53;3.90;;;;;;;;;;5025207;28;20026;-81
2022/12/21 14:57:18;;;;;;;8.20;4.05;;;;;;;;;;5026498;28;20140;-81
2022/12/21 14:59:48;;;;;;;7.82;4.00;;;;;;;;;;5025975;28;20040;-82
2022/12/21 15:02:25;;;;;;;6.60;3.80;;;;;;;;;;5061975;22;20486;-81
2022/12/21 15:04:56;;;;;;;6.57;4.03;;;;;;;;;;5037375;28;20029;-82
2022/12/21 15:07:26;;;;;;;7.45;3.50;;;;;;;;;;5038294;28;20080;-82
2022/12/21 15:10:03;;;;;;;7.35;3.40;;;;;;;;;;5038379;28;20053;-82
2022/12/21 15:12:36;;;;;;;6.80;3.70;;;;;;;;;;5020152;28;20064;-81
2022/12/21 15:15:21;;;;;;;5.90;3.35;;;;;;;;;;5036474;28;20040;-82
2022/12/21 15:17:46;;;;;;;4.82;3.10;;;;;;;;;;5018977;28;20124;-83
2022/12/21 15:20:44;;;;;;;5.75;3.20;;;;;;;;;;5036700;28;20045;-82
2022/12/21 15:23:22;;;;;;;5.43;3.55;;;;;;;;;;5036507;28;20040;-82
2022/12/21 15:25:52;;;;;;;6.78;3.70;;;;;;;;;;5035376;28;20423;-82
2022/12/21 15:28:24;;;;;;;6.75;4.22;;;;;;;;;;5018742;28;20025;-82